createdAt,value
2023-03-05T00:01:41.418Z,26.90
2023-03-05T00:04:14.306Z,26.10
2023-03-05T00:06:44.389Z,28.20
2023-03-05T00:09:12.979Z,27.60
2023-03-05T00:11:42.593Z,29.30
2023-03-05T00:14:11.356Z,26.70
2023-03-05T00:16:39.942Z,25.90
2023-03-05T00:19:12.973Z,26.20
2023-03-05T00:21:42.275Z,27.10
2023-03-05T00:24:14.836Z,27.90
2023-03-05T00:26:44.568Z,32.50
2023-03-05T00:29:18.567Z,28.10
2023-03-05T00:31:48.986Z,27.10
2023-03-05T00:34:18.358Z,28.90
2023-03-05T00:36:50.019Z,31.90
2023-03-05T00:41:48.614Z,30.80
2023-03-05T00:44:17.302Z,32.30
2023-03-05T00:46:46.459Z,31.30
2023-03-05T00:49:15.194Z,32.50
2023-03-05T00:51:44.952Z,36.40
2023-03-05T00:54:13.789Z,34.70
2023-03-05T00:56:43.443Z,30.90
2023-03-05T00:59:12.387Z,34.90
2023-03-05T01:01:42.713Z,35.80
2023-03-05T01:04:12.311Z,36.70
2023-03-05T01:06:44.974Z,33.90
2023-03-05T01:09:16.241Z,34.80
2023-03-05T01:11:45.432Z,34.40
2023-03-05T01:14:15.645Z,35.80
2023-03-05T01:16:44.809Z,35.10
2023-03-05T01:19:14.651Z,36.70
2023-03-05T01:21:42.951Z,36.10
2023-03-05T01:24:15.708Z,38.60
2023-03-05T01:26:45.019Z,36.60
2023-03-05T01:29:13.896Z,35.30
2023-03-05T01:31:43.379Z,34.40
2023-03-05T01:34:12.410Z,40.20
2023-03-05T01:36:42.628Z,37.10
2023-03-05T01:39:11.300Z,32.60
2023-03-05T01:41:39.861Z,37.40
2023-03-05T01:44:24.146Z,34.40
2023-03-05T01:46:52.622Z,34.90
2023-03-05T01:49:22.634Z,37.30
2023-03-05T01:51:59.108Z,36.10
2023-03-05T01:54:33.704Z,34.80
2023-03-05T01:57:07.557Z,34.50
2023-03-05T01:59:40.635Z,38.50
2023-03-05T02:02:09.408Z,36.90
2023-03-05T02:04:46.219Z,35.60
2023-03-05T02:07:16.603Z,38.30
2023-03-05T02:09:45.190Z,32.70
2023-03-05T02:12:13.696Z,37.70
2023-03-05T02:14:46.230Z,33.70
2023-03-05T02:17:14.640Z,36.10
2023-03-05T02:19:57.409Z,38.30
2023-03-05T02:22:26.036Z,36.20
2023-03-05T02:24:54.727Z,39.50
2023-03-05T02:27:28.939Z,34.70
2023-03-05T02:30:02.122Z,34.70
2023-03-05T02:32:30.857Z,38.20
2023-03-05T02:34:59.400Z,34.90
2023-03-05T02:37:29.110Z,36.50
2023-03-05T02:39:57.746Z,38.50
2023-03-05T02:42:27.313Z,34.00
2023-03-05T02:44:57.112Z,35.70
2023-03-05T02:47:28.172Z,33.90
2023-03-05T02:49:56.839Z,38.70
2023-03-05T02:52:25.935Z,37.70
2023-03-05T02:54:54.419Z,32.30
2023-03-05T02:57:24.536Z,38.30
2023-03-05T02:59:54.209Z,35.90
2023-03-05T03:02:22.936Z,36.60
2023-03-05T03:04:51.618Z,38.40
2023-03-05T03:07:20.422Z,37.80
2023-03-05T03:09:51.056Z,39.80
2023-03-05T03:12:21.789Z,35.30
2023-03-05T03:14:50.173Z,33.70
2023-03-05T03:17:19.248Z,40.10
2023-03-05T03:19:48.447Z,36.70
2023-03-05T03:22:17.041Z,34.70
2023-03-05T03:24:48.224Z,36.60
2023-03-05T03:27:16.553Z,40.90
2023-03-05T03:29:45.859Z,36.40
2023-03-05T03:32:14.698Z,39.00
2023-03-05T03:34:48.582Z,42.20
2023-03-05T03:37:17.218Z,38.40
2023-03-05T03:39:45.536Z,40.60
2023-03-05T03:42:16.561Z,37.80
2023-03-05T03:44:44.933Z,37.80
2023-03-05T03:47:13.386Z,43.00
2023-03-05T03:49:41.962Z,37.80
2023-03-05T03:52:10.609Z,40.00
2023-03-05T03:54:41.318Z,40.30
2023-03-05T03:57:10.125Z,38.20
2023-03-05T03:59:39.732Z,43.60
2023-03-05T04:02:08.356Z,37.90
2023-03-05T04:04:38.272Z,38.00
2023-03-05T04:07:07.211Z,37.70
2023-03-05T04:09:39.373Z,39.50
2023-03-05T04:12:08.880Z,36.50
2023-03-05T04:14:37.361Z,33.20
2023-03-05T04:17:05.943Z,37.00
2023-03-05T04:19:34.533Z,38.20
2023-03-05T04:22:03.438Z,30.60
2023-03-05T04:24:32.746Z,32.30
2023-03-05T04:27:01.635Z,32.60
2023-03-05T04:29:30.598Z,29.30
2023-03-05T04:31:59.106Z,33.60
2023-03-05T04:34:28.516Z,28.80
2023-03-05T04:36:56.975Z,27.80
2023-03-05T04:39:25.544Z,29.40
2023-03-05T04:41:54.127Z,29.40
2023-03-05T04:44:29.861Z,27.90
2023-03-05T04:46:58.438Z,27.70
2023-03-05T04:49:26.940Z,29.60
2023-03-05T04:51:57.735Z,28.20
2023-03-05T04:54:26.303Z,23.90
2023-03-05T04:56:55.891Z,23.60
2023-03-05T04:59:25.090Z,27.00
2023-03-05T05:01:55.949Z,28.40
2023-03-05T05:04:24.385Z,25.40
2023-03-05T05:06:58.391Z,27.10
2023-03-05T05:09:27.183Z,25.50
2023-03-05T05:11:55.843Z,28.50
2023-03-05T05:14:25.422Z,27.70
2023-03-05T05:16:54.264Z,31.30
2023-03-05T05:19:23.135Z,25.00
2023-03-05T05:21:52.084Z,26.40
2023-03-05T05:24:20.423Z,27.50
2023-03-05T05:26:49.436Z,25.60
2023-03-05T05:29:18.001Z,26.10
2023-03-05T05:31:46.676Z,24.90
2023-03-05T05:34:16.303Z,24.30
2023-03-05T05:36:44.877Z,20.60
2023-03-05T05:39:13.262Z,20.90
